UKV6461 YBCS-YPDN
Flight info
| Callsign | UKV6461 |
|---|---|
| Flight time | 2h 26m |
| Altitude | 34000 |
| Route | CS J61 GUGUK/N0459F360 J61 DUMAV Q91 ALLEE Q23 DN |
| Aircraft | A320/M-SDE3FGHIRWY/LB1 |
Departure
| Time | 2026-04-28 21:28 |
|---|---|
| Airport | Cairns International Airport (YBCS) |
Arrival
| Time | 2026-04-28 23:54 |
|---|---|
| Airport | Darwin International Airport / RAAF Darwin (YPDN) |
| Time | Latitude | Longitude | Altitude | Speed | Heading |
|---|---|---|---|---|---|
| 2026-04-28 20:53 | -16.87666 | 145.75242 | 13 ft | 0 kts | 67° |
| 2026-04-28 21:15 | -16.87671 | 145.75229 | 12 ft | 3 kts | 67° |
| 2026-04-28 21:15 | -16.87678 | 145.75212 | 12 ft | 2 kts | 67° |
| 2026-04-28 21:15 | -16.87685 | 145.75196 | 12 ft | 2 kts | 67° |
| 2026-04-28 21:15 | -16.87691 | 145.75179 | 12 ft | 2 kts | 67° |
| 2026-04-28 21:16 | -16.87698 | 145.75163 | 15 ft | 3 kts | 60° |
| 2026-04-28 21:16 | -16.87709 | 145.75149 | 15 ft | 3 kts | 24° |
| 2026-04-28 21:16 | -16.87726 | 145.75145 | 13 ft | 3 kts | 348° |
| 2026-04-28 21:16 | -16.87742 | 145.75150 | 16 ft | 1 kts | 340° |
| 2026-04-28 21:17 | -16.87743 | 145.75150 | 16 ft | 0 kts | 340° |
| 2026-04-28 21:21 | -16.87740 | 145.75149 | 12 ft | 1 kts | 340° |
| 2026-04-28 21:22 | -16.87728 | 145.75145 | 12 ft | 2 kts | 343° |
| 2026-04-28 21:22 | -16.87715 | 145.75142 | 12 ft | 2 kts | 347° |
| 2026-04-28 21:22 | -16.87704 | 145.75140 | 12 ft | 2 kts | 348° |
| 2026-04-28 21:22 | -16.87683 | 145.75136 | 12 ft | 5 kts | 349° |
| 2026-04-28 21:23 | -16.87656 | 145.75113 | 12 ft | 5 kts | 297° |
| 2026-04-28 21:23 | -16.87656 | 145.75083 | 12 ft | 3 kts | 258° |
| 2026-04-28 21:23 | -16.87658 | 145.75067 | 12 ft | 2 kts | 269° |
| 2026-04-28 21:23 | -16.87647 | 145.75040 | 14 ft | 6 kts | 308° |
| 2026-04-28 21:24 | -16.87595 | 145.75010 | 14 ft | 11 kts | 338° |
| 2026-04-28 21:24 | -16.87514 | 145.74973 | 5 ft | 14 kts | 335° |
| 2026-04-28 21:24 | -16.87427 | 145.74934 | -7 ft | 14 kts | 337° |
| 2026-04-28 21:24 | -16.87338 | 145.74895 | -9 ft | 14 kts | 337° |
| 2026-04-28 21:25 | -16.87253 | 145.74858 | -7 ft | 13 kts | 337° |
| 2026-04-28 21:25 | -16.87180 | 145.74826 | -6 ft | 10 kts | 334° |
| 2026-04-28 21:25 | -16.87119 | 145.74795 | -7 ft | 9 kts | 335° |
| 2026-04-28 21:25 | -16.87063 | 145.74763 | -8 ft | 9 kts | 316° |
| 2026-04-28 21:26 | -16.87050 | 145.74714 | -9 ft | 7 kts | 262° |
| 2026-04-28 21:26 | -16.87068 | 145.74664 | -10 ft | 8 kts | 244° |
| 2026-04-28 21:26 | -16.87091 | 145.74614 | -9 ft | 7 kts | 245° |
| 2026-04-28 21:26 | -16.87121 | 145.74607 | -11 ft | 5 kts | 184° |
| 2026-04-28 21:27 | -16.87144 | 145.74612 | -11 ft | 0 kts | 159° |
| 2026-04-28 21:27 | -16.87155 | 145.74617 | -10 ft | 11 kts | 157° |
| 2026-04-28 21:27 | -16.87474 | 145.74767 | -4 ft | 88 kts | 157° |
| 2026-04-28 21:27 | -16.88249 | 145.75106 | 18 ft | 150 kts | 158° |
| 2026-04-28 21:28 | -16.89235 | 145.75545 | 696 ft | 148 kts | 155° |
| 2026-04-28 21:28 | -16.90204 | 145.76025 | 1412 ft | 158 kts | 152° |
| 2026-04-28 21:28 | -16.91236 | 145.76432 | 2087 ft | 159 kts | 163° |
| 2026-04-28 21:28 | -16.92305 | 145.76695 | 2797 ft | 156 kts | 162° |
| 2026-04-28 21:29 | -16.93310 | 145.77077 | 3504 ft | 151 kts | 149° |
| 2026-04-28 21:29 | -16.94041 | 145.77803 | 4178 ft | 146 kts | 116° |
| 2026-04-28 21:29 | -16.94170 | 145.78844 | 4813 ft | 150 kts | 81° |
| 2026-04-28 21:29 | -16.93627 | 145.79790 | 5411 ft | 159 kts | 45° |
| 2026-04-28 21:30 | -16.92592 | 145.80256 | 5970 ft | 170 kts | 9° |
| 2026-04-28 21:30 | -16.91417 | 145.80031 | 6522 ft | 178 kts | 333° |
| 2026-04-28 21:30 | -16.90517 | 145.79178 | 7005 ft | 180 kts | 299° |
| 2026-04-28 21:30 | -16.90057 | 145.77974 | 7515 ft | 178 kts | 283° |
| 2026-04-28 21:31 | -16.89798 | 145.76713 | 8013 ft | 177 kts | 279° |
| 2026-04-28 21:31 | -16.89582 | 145.75457 | 8499 ft | 178 kts | 281° |
| 2026-04-28 21:31 | -16.89321 | 145.74140 | 8834 ft | 189 kts | 283° |
| 2026-04-28 21:31 | -16.89021 | 145.72841 | 9475 ft | 178 kts | 285° |
| 2026-04-28 21:32 | -16.88705 | 145.71608 | 9958 ft | 179 kts | 287° |
| 2026-04-28 21:32 | -16.88329 | 145.70315 | 10223 ft | 191 kts | 290° |
| 2026-04-28 21:32 | -16.87910 | 145.69026 | 10807 ft | 179 kts | 290° |
| 2026-04-28 21:32 | -16.87496 | 145.67859 | 11413 ft | 169 kts | 291° |
| 2026-04-28 21:33 | -16.87038 | 145.66677 | 11695 ft | 182 kts | 293° |
| 2026-04-28 21:33 | -16.86538 | 145.65492 | 12273 ft | 170 kts | 294° |
| 2026-04-28 21:33 | -16.86039 | 145.64410 | 12805 ft | 165 kts | 295° |
| 2026-04-28 21:33 | -16.85511 | 145.63269 | 12965 ft | 181 kts | 292° |
| 2026-04-28 21:34 | -16.85105 | 145.62083 | 13552 ft | 167 kts | 282° |
| 2026-04-28 21:34 | -16.84930 | 145.60938 | 14094 ft | 159 kts | 272° |
| 2026-04-28 21:34 | -16.84967 | 145.59707 | 14147 ft | 181 kts | 262° |
| 2026-04-28 21:34 | -16.85231 | 145.58442 | 14627 ft | 170 kts | 259° |
| 2026-04-28 21:35 | -16.85376 | 145.57244 | 15018 ft | 173 kts | 269° |
| 2026-04-28 21:35 | -16.85248 | 145.55851 | 14824 ft | 212 kts | 281° |
| 2026-04-28 21:35 | -16.84762 | 145.54302 | 14965 ft | 233 kts | 293° |
| 2026-04-28 21:35 | -16.83989 | 145.52825 | 15465 ft | 239 kts | 298° |
| 2026-04-28 21:36 | -16.83112 | 145.51251 | 15592 ft | 262 kts | 294° |
| 2026-04-28 21:36 | -16.82356 | 145.49434 | 15727 ft | 283 kts | 288° |
| 2026-04-28 21:36 | -16.81692 | 145.47413 | 15855 ft | 305 kts | 286° |
| 2026-04-28 21:36 | -16.81036 | 145.45228 | 15970 ft | 326 kts | 285° |
| 2026-04-28 21:37 | -16.80339 | 145.42893 | 16079 ft | 346 kts | 285° |
| 2026-04-28 21:37 | -16.79585 | 145.40433 | 16211 ft | 364 kts | 286° |
| 2026-04-28 21:37 | -16.78782 | 145.37898 | 16574 ft | 372 kts | 287° |
| 2026-04-28 21:37 | -16.77943 | 145.35327 | 17060 ft | 377 kts | 287° |
| 2026-04-28 21:38 | -16.77080 | 145.32730 | 17578 ft | 380 kts | 287° |
| 2026-04-28 21:38 | -16.76205 | 145.30110 | 18077 ft | 384 kts | 287° |
| 2026-04-28 21:38 | -16.75336 | 145.27499 | 18539 ft | 388 kts | 287° |
| 2026-04-28 21:38 | -16.74450 | 145.24830 | 18984 ft | 391 kts | 287° |
| 2026-04-28 21:39 | -16.73557 | 145.22137 | 19446 ft | 393 kts | 287° |
| 2026-04-28 21:39 | -16.72663 | 145.19435 | 19907 ft | 395 kts | 287° |
| 2026-04-28 21:39 | -16.71763 | 145.16713 | 20362 ft | 397 kts | 287° |
| 2026-04-28 21:39 | -16.70856 | 145.13980 | 20836 ft | 400 kts | 287° |
| 2026-04-28 21:40 | -16.69943 | 145.11233 | 21298 ft | 402 kts | 286° |
| 2026-04-28 21:40 | -16.69025 | 145.08475 | 21745 ft | 404 kts | 286° |
| 2026-04-28 21:40 | -16.68101 | 145.05698 | 22203 ft | 406 kts | 286° |
| 2026-04-28 21:40 | -16.67174 | 145.02904 | 22656 ft | 408 kts | 286° |
| 2026-04-28 21:41 | -16.66243 | 145.00093 | 23078 ft | 411 kts | 286° |
| 2026-04-28 21:41 | -16.65321 | 144.97306 | 23500 ft | 413 kts | 286° |
| 2026-04-28 21:41 | -16.64378 | 144.94463 | 23877 ft | 415 kts | 286° |
| 2026-04-28 21:41 | -16.63431 | 144.91612 | 24258 ft | 417 kts | 286° |
| 2026-04-28 21:42 | -16.62517 | 144.88744 | 24633 ft | 417 kts | 284° |
| 2026-04-28 21:42 | -16.61697 | 144.85847 | 25006 ft | 417 kts | 282° |
| 2026-04-28 21:42 | -16.60942 | 144.82925 | 25372 ft | 418 kts | 281° |
| 2026-04-28 21:42 | -16.60214 | 144.79988 | 25741 ft | 418 kts | 281° |
| 2026-04-28 21:43 | -16.59486 | 144.77043 | 26092 ft | 420 kts | 281° |
| 2026-04-28 21:43 | -16.58742 | 144.74096 | 26440 ft | 421 kts | 282° |
| 2026-04-28 21:43 | -16.57977 | 144.71149 | 26786 ft | 422 kts | 282° |
| 2026-04-28 21:43 | -16.57197 | 144.68191 | 27136 ft | 424 kts | 282° |
| 2026-04-28 21:44 | -16.56406 | 144.65228 | 27484 ft | 425 kts | 282° |
| 2026-04-28 21:44 | -16.55609 | 144.62252 | 27823 ft | 426 kts | 282° |
| 2026-04-28 21:44 | -16.54812 | 144.59274 | 28160 ft | 428 kts | 282° |
| 2026-04-28 21:44 | -16.54014 | 144.56283 | 28478 ft | 429 kts | 282° |
| 2026-04-28 21:45 | -16.53224 | 144.53320 | 28790 ft | 430 kts | 282° |
| 2026-04-28 21:45 | -16.52425 | 144.50312 | 29085 ft | 431 kts | 282° |
| 2026-04-28 21:45 | -16.51627 | 144.47294 | 29354 ft | 433 kts | 281° |
| 2026-04-28 21:45 | -16.50820 | 144.44259 | 29624 ft | 435 kts | 281° |
| 2026-04-28 21:46 | -16.50006 | 144.41206 | 29908 ft | 437 kts | 282° |
| 2026-04-28 21:46 | -16.49191 | 144.38151 | 30176 ft | 438 kts | 281° |
| 2026-04-28 21:46 | -16.48373 | 144.35086 | 30412 ft | 440 kts | 281° |
| 2026-04-28 21:46 | -16.47553 | 144.32014 | 30685 ft | 440 kts | 281° |
| 2026-04-28 21:47 | -16.46734 | 144.28946 | 31027 ft | 438 kts | 281° |
| 2026-04-28 21:47 | -16.45918 | 144.25889 | 31351 ft | 437 kts | 281° |
| 2026-04-28 21:47 | -16.45113 | 144.22880 | 31655 ft | 437 kts | 281° |
| 2026-04-28 21:47 | -16.44298 | 144.19830 | 31963 ft | 437 kts | 281° |
| 2026-04-28 21:48 | -16.43484 | 144.16787 | 32287 ft | 436 kts | 281° |
| 2026-04-28 21:48 | -16.42667 | 144.13745 | 32614 ft | 435 kts | 281° |
| 2026-04-28 21:48 | -16.41852 | 144.10714 | 32953 ft | 434 kts | 281° |
| 2026-04-28 21:48 | -16.41040 | 144.07689 | 33302 ft | 433 kts | 281° |
| 2026-04-28 21:49 | -16.40231 | 144.04670 | 33643 ft | 432 kts | 281° |
| 2026-04-28 21:49 | -16.39425 | 144.01659 | 33962 ft | 432 kts | 281° |
| 2026-04-28 21:49 | -16.37817 | 143.95659 | 34057 ft | 428 kts | 281° |
| 2026-04-28 21:50 | -16.36212 | 143.89690 | 34059 ft | 428 kts | 281° |
| 2026-04-28 21:50 | -16.34605 | 143.83733 | 34059 ft | 427 kts | 281° |
| 2026-04-28 21:51 | -16.33014 | 143.77808 | 34057 ft | 428 kts | 281° |
| 2026-04-28 21:51 | -16.31406 | 143.71845 | 34050 ft | 428 kts | 281° |
| 2026-04-28 21:52 | -16.29787 | 143.65877 | 34046 ft | 428 kts | 281° |
| 2026-04-28 21:52 | -16.28169 | 143.59918 | 34046 ft | 428 kts | 281° |
| 2026-04-28 21:53 | -16.26549 | 143.53956 | 34043 ft | 428 kts | 281° |
| 2026-04-28 21:53 | -16.24937 | 143.47986 | 34038 ft | 428 kts | 281° |
| 2026-04-28 21:54 | -16.23325 | 143.42019 | 34036 ft | 429 kts | 281° |
| 2026-04-28 21:54 | -16.21698 | 143.36047 | 34039 ft | 429 kts | 281° |
| 2026-04-28 21:55 | -16.20083 | 143.30113 | 34041 ft | 429 kts | 281° |
| 2026-04-28 21:55 | -16.18454 | 143.24139 | 34031 ft | 429 kts | 282° |
| 2026-04-28 21:56 | -16.16816 | 143.18160 | 34029 ft | 430 kts | 282° |
| 2026-04-28 21:56 | -16.15181 | 143.12169 | 34033 ft | 430 kts | 282° |
| 2026-04-28 21:57 | -16.13544 | 143.06181 | 34033 ft | 431 kts | 282° |
| 2026-04-28 21:57 | -16.11899 | 143.00187 | 34030 ft | 431 kts | 282° |
| 2026-04-28 21:58 | -16.10250 | 142.94192 | 34038 ft | 431 kts | 282° |
| 2026-04-28 21:58 | -16.08605 | 142.88193 | 34043 ft | 431 kts | 282° |
| 2026-04-28 21:59 | -16.06962 | 142.82230 | 34040 ft | 431 kts | 282° |
| 2026-04-28 22:00 | -16.04755 | 142.74198 | 34024 ft | 431 kts | 282° |
| 2026-04-28 22:00 | -16.02841 | 142.67227 | 34031 ft | 431 kts | 282° |
| 2026-04-28 22:01 | -16.01460 | 142.62239 | 34032 ft | 432 kts | 282° |
| 2026-04-28 22:01 | -15.99796 | 142.56238 | 34037 ft | 432 kts | 282° |
| 2026-04-28 22:02 | -15.98138 | 142.50235 | 34031 ft | 432 kts | 282° |
| 2026-04-28 22:02 | -15.96480 | 142.44227 | 34026 ft | 432 kts | 282° |
| 2026-04-28 22:03 | -15.94811 | 142.38224 | 34035 ft | 433 kts | 282° |
| 2026-04-28 22:03 | -15.93140 | 142.32216 | 34031 ft | 433 kts | 282° |
| 2026-04-28 22:04 | -15.91476 | 142.26210 | 34018 ft | 433 kts | 282° |
| 2026-04-28 22:04 | -15.89803 | 142.20201 | 34023 ft | 433 kts | 282° |
| 2026-04-28 22:05 | -15.88139 | 142.14227 | 34040 ft | 434 kts | 282° |
| 2026-04-28 22:05 | -15.86460 | 142.08206 | 34037 ft | 435 kts | 282° |
| 2026-04-28 22:06 | -15.84781 | 142.02166 | 34070 ft | 437 kts | 282° |
| 2026-04-28 22:06 | -15.83934 | 141.99135 | 34335 ft | 437 kts | 282° |
| 2026-04-28 22:06 | -15.83085 | 141.96107 | 34652 ft | 435 kts | 282° |
| 2026-04-28 22:06 | -15.82236 | 141.93092 | 34959 ft | 434 kts | 283° |
| 2026-04-28 22:07 | -15.81390 | 141.90087 | 35244 ft | 433 kts | 283° |
| 2026-04-28 22:07 | -15.80547 | 141.87088 | 35536 ft | 432 kts | 282° |
| 2026-04-28 22:07 | -15.79712 | 141.84099 | 35829 ft | 431 kts | 282° |
| 2026-04-28 22:07 | -15.78876 | 141.81114 | 36115 ft | 429 kts | 282° |
| 2026-04-28 22:08 | -15.78041 | 141.78144 | 36382 ft | 428 kts | 283° |
| 2026-04-28 22:08 | -15.77205 | 141.75178 | 36651 ft | 427 kts | 283° |
| 2026-04-28 22:08 | -15.76370 | 141.72218 | 36914 ft | 426 kts | 283° |
| 2026-04-28 22:08 | -15.75551 | 141.69308 | 37173 ft | 425 kts | 283° |
| 2026-04-28 22:09 | -15.74725 | 141.66368 | 37438 ft | 424 kts | 283° |
| 2026-04-28 22:09 | -15.73898 | 141.63435 | 37695 ft | 423 kts | 283° |
| 2026-04-28 22:09 | -15.73071 | 141.60510 | 37936 ft | 422 kts | 283° |
| 2026-04-28 22:10 | -15.71421 | 141.54673 | 38030 ft | 421 kts | 283° |
| 2026-04-28 22:10 | -15.69779 | 141.48848 | 38029 ft | 420 kts | 283° |
| 2026-04-28 22:11 | -15.68136 | 141.43030 | 38034 ft | 420 kts | 283° |
| 2026-04-28 22:11 | -15.66485 | 141.37212 | 38028 ft | 420 kts | 283° |
| 2026-04-28 22:12 | -15.64827 | 141.31392 | 38027 ft | 420 kts | 283° |
| 2026-04-28 22:12 | -15.63188 | 141.25604 | 38037 ft | 420 kts | 283° |
| 2026-04-28 22:13 | -15.61542 | 141.19784 | 38041 ft | 420 kts | 283° |
| 2026-04-28 22:13 | -15.59889 | 141.13961 | 38026 ft | 420 kts | 283° |
| 2026-04-28 22:14 | -15.58228 | 141.08147 | 38029 ft | 420 kts | 283° |
| 2026-04-28 22:14 | -15.56566 | 141.02332 | 38021 ft | 421 kts | 283° |
| 2026-04-28 22:15 | -15.54911 | 140.96514 | 38026 ft | 421 kts | 283° |
| 2026-04-28 22:15 | -15.53250 | 140.90689 | 38039 ft | 421 kts | 283° |
| 2026-04-28 22:16 | -15.51583 | 140.84871 | 38031 ft | 421 kts | 283° |
| 2026-04-28 22:16 | -15.49917 | 140.79046 | 38030 ft | 421 kts | 283° |
| 2026-04-28 22:17 | -15.48250 | 140.73234 | 38037 ft | 420 kts | 283° |
| 2026-04-28 22:17 | -15.46588 | 140.67463 | 38030 ft | 420 kts | 283° |
| 2026-04-28 22:18 | -15.44918 | 140.61661 | 38023 ft | 420 kts | 283° |
| 2026-04-28 22:18 | -15.43257 | 140.55863 | 38031 ft | 420 kts | 283° |
| 2026-04-28 22:19 | -15.41587 | 140.50063 | 38027 ft | 420 kts | 283° |
| 2026-04-28 22:19 | -15.39915 | 140.44262 | 38021 ft | 420 kts | 283° |
| 2026-04-28 22:20 | -15.38244 | 140.38464 | 38020 ft | 420 kts | 283° |
| 2026-04-28 22:20 | -15.36570 | 140.32663 | 38014 ft | 420 kts | 284° |
| 2026-04-28 22:21 | -15.34906 | 140.26902 | 38029 ft | 420 kts | 284° |
| 2026-04-28 22:21 | -15.33225 | 140.21107 | 38021 ft | 420 kts | 284° |
| 2026-04-28 22:22 | -15.31543 | 140.15310 | 38015 ft | 420 kts | 284° |
| 2026-04-28 22:22 | -15.29865 | 140.09508 | 38016 ft | 420 kts | 284° |
| 2026-04-28 22:23 | -15.28181 | 140.03706 | 38015 ft | 421 kts | 284° |
| 2026-04-28 22:23 | -15.26494 | 139.97900 | 38011 ft | 421 kts | 284° |
| 2026-04-28 22:24 | -15.24805 | 139.92096 | 38007 ft | 421 kts | 284° |
| 2026-04-28 22:24 | -15.23122 | 139.86295 | 38008 ft | 421 kts | 284° |
| 2026-04-28 22:25 | -15.21427 | 139.80480 | 38013 ft | 421 kts | 284° |
| 2026-04-28 22:25 | -15.19739 | 139.74712 | 38008 ft | 421 kts | 284° |
| 2026-04-28 22:26 | -15.18036 | 139.68910 | 38009 ft | 421 kts | 284° |
| 2026-04-28 22:26 | -15.16342 | 139.63105 | 38016 ft | 421 kts | 284° |
| 2026-04-28 22:27 | -15.14663 | 139.57296 | 38017 ft | 421 kts | 284° |
| 2026-04-28 22:27 | -15.12979 | 139.51490 | 38015 ft | 422 kts | 284° |
| 2026-04-28 22:28 | -15.11253 | 139.45694 | 38015 ft | 421 kts | 284° |
| 2026-04-28 22:28 | -15.09551 | 139.39930 | 38017 ft | 421 kts | 284° |
| 2026-04-28 22:29 | -15.07847 | 139.34129 | 38013 ft | 421 kts | 284° |
| 2026-04-28 22:29 | -15.06143 | 139.28329 | 38013 ft | 421 kts | 284° |
| 2026-04-28 22:30 | -15.04430 | 139.22532 | 38013 ft | 421 kts | 284° |
| 2026-04-28 22:30 | -15.02726 | 139.16732 | 38019 ft | 421 kts | 284° |
| 2026-04-28 22:31 | -15.01057 | 139.11070 | 38014 ft | 400 kts | 284° |
| 2026-04-28 22:31 | -14.99444 | 139.05618 | 38008 ft | 395 kts | 284° |
| 2026-04-28 22:32 | -14.97836 | 139.00181 | 38009 ft | 395 kts | 284° |
| 2026-04-28 22:32 | -14.96232 | 138.94745 | 38009 ft | 395 kts | 284° |
| 2026-04-28 22:33 | -14.94617 | 138.89315 | 38008 ft | 395 kts | 284° |
| 2026-04-28 22:33 | -14.93004 | 138.83882 | 38000 ft | 395 kts | 284° |
| 2026-04-28 22:34 | -14.91386 | 138.78444 | 37997 ft | 396 kts | 285° |
| 2026-04-28 22:34 | -14.89765 | 138.72986 | 38001 ft | 398 kts | 284° |
| 2026-04-28 22:35 | -14.88143 | 138.67506 | 37996 ft | 399 kts | 285° |
| 2026-04-28 22:35 | -14.86520 | 138.62054 | 37986 ft | 400 kts | 285° |
| 2026-04-28 22:36 | -14.84868 | 138.56521 | 37986 ft | 400 kts | 285° |
| 2026-04-28 22:36 | -14.83238 | 138.51056 | 37989 ft | 401 kts | 285° |
| 2026-04-28 22:37 | -14.81588 | 138.45546 | 37998 ft | 401 kts | 285° |
| 2026-04-28 22:37 | -14.79939 | 138.40033 | 37980 ft | 402 kts | 285° |
| 2026-04-28 22:38 | -14.78289 | 138.34513 | 37979 ft | 403 kts | 285° |
| 2026-04-28 22:38 | -14.76633 | 138.28980 | 37983 ft | 403 kts | 285° |
| 2026-04-28 22:39 | -14.74969 | 138.23442 | 37989 ft | 404 kts | 285° |
| 2026-04-28 22:39 | -14.73300 | 138.17897 | 37986 ft | 404 kts | 285° |
| 2026-04-28 22:40 | -14.71637 | 138.12345 | 37988 ft | 405 kts | 285° |
| 2026-04-28 22:40 | -14.69967 | 138.06793 | 37992 ft | 405 kts | 285° |
| 2026-04-28 22:41 | -14.68300 | 138.01232 | 37984 ft | 405 kts | 285° |
| 2026-04-28 22:41 | -14.66631 | 137.95671 | 37987 ft | 405 kts | 285° |
| 2026-04-28 22:42 | -14.64950 | 137.90111 | 37991 ft | 406 kts | 285° |
| 2026-04-28 22:42 | -14.63270 | 137.84548 | 37991 ft | 406 kts | 285° |
| 2026-04-28 22:43 | -14.61590 | 137.78985 | 37991 ft | 406 kts | 285° |
| 2026-04-28 22:43 | -14.59910 | 137.73420 | 37988 ft | 406 kts | 286° |
| 2026-04-28 22:44 | -14.58223 | 137.67855 | 37992 ft | 406 kts | 285° |
| 2026-04-28 22:44 | -14.56551 | 137.62329 | 37992 ft | 406 kts | 285° |
| 2026-04-28 22:45 | -14.54868 | 137.56759 | 37993 ft | 406 kts | 286° |
| 2026-04-28 22:45 | -14.53176 | 137.51193 | 37991 ft | 407 kts | 286° |
| 2026-04-28 22:46 | -14.51484 | 137.45625 | 37990 ft | 407 kts | 286° |
| 2026-04-28 22:46 | -14.49798 | 137.40057 | 37991 ft | 407 kts | 286° |
| 2026-04-28 22:47 | -14.48103 | 137.34489 | 37984 ft | 407 kts | 286° |
| 2026-04-28 22:47 | -14.46404 | 137.28917 | 37986 ft | 407 kts | 286° |
| 2026-04-28 22:48 | -14.44698 | 137.23347 | 37988 ft | 407 kts | 286° |
| 2026-04-28 22:48 | -14.42999 | 137.17773 | 37991 ft | 407 kts | 286° |
| 2026-04-28 22:49 | -14.41303 | 137.12198 | 37995 ft | 407 kts | 286° |
| 2026-04-28 22:49 | -14.39604 | 137.06626 | 37998 ft | 407 kts | 286° |
| 2026-04-28 22:50 | -14.37891 | 137.01053 | 37994 ft | 407 kts | 286° |
| 2026-04-28 22:50 | -14.36471 | 136.96424 | 37987 ft | 407 kts | 286° |
| 2026-04-28 22:51 | -14.34768 | 136.90850 | 37989 ft | 408 kts | 286° |
| 2026-04-28 22:51 | -14.32782 | 136.84370 | 37991 ft | 408 kts | 286° |
| 2026-04-28 22:52 | -14.31345 | 136.79699 | 37994 ft | 408 kts | 286° |
| 2026-04-28 22:52 | -14.29634 | 136.74127 | 38004 ft | 408 kts | 286° |
| 2026-04-28 22:53 | -14.27917 | 136.68558 | 38008 ft | 408 kts | 286° |
| 2026-04-28 22:53 | -14.26200 | 136.62988 | 38008 ft | 408 kts | 286° |
| 2026-04-28 22:54 | -14.24494 | 136.57421 | 38010 ft | 407 kts | 286° |
| 2026-04-28 22:54 | -14.22780 | 136.51859 | 38010 ft | 407 kts | 286° |
| 2026-04-28 22:55 | -14.21073 | 136.46338 | 38008 ft | 407 kts | 286° |
| 2026-04-28 22:55 | -14.19349 | 136.40785 | 38005 ft | 407 kts | 286° |
| 2026-04-28 22:56 | -14.17630 | 136.35231 | 38012 ft | 407 kts | 286° |
| 2026-04-28 22:56 | -14.15914 | 136.29677 | 38012 ft | 407 kts | 286° |
| 2026-04-28 22:57 | -14.14202 | 136.24125 | 38010 ft | 407 kts | 286° |
| 2026-04-28 22:57 | -14.12485 | 136.18577 | 38008 ft | 406 kts | 286° |
| 2026-04-28 22:58 | -14.10758 | 136.13032 | 38001 ft | 406 kts | 286° |
| 2026-04-28 22:58 | -14.09032 | 136.07485 | 38001 ft | 407 kts | 286° |
| 2026-04-28 22:59 | -14.07311 | 136.01936 | 38003 ft | 407 kts | 286° |
| 2026-04-28 22:59 | -14.05580 | 135.96390 | 38004 ft | 407 kts | 286° |
| 2026-04-28 23:00 | -14.03859 | 135.90843 | 38003 ft | 407 kts | 286° |
| 2026-04-28 23:00 | -14.02128 | 135.85295 | 38006 ft | 407 kts | 286° |
| 2026-04-28 23:01 | -14.00398 | 135.79748 | 38006 ft | 407 kts | 286° |
| 2026-04-28 23:01 | -13.98661 | 135.74199 | 38006 ft | 407 kts | 286° |
| 2026-04-28 23:02 | -13.96942 | 135.68688 | 38005 ft | 407 kts | 286° |
| 2026-04-28 23:02 | -13.95202 | 135.63139 | 38007 ft | 407 kts | 286° |
| 2026-04-28 23:03 | -13.93667 | 135.57540 | 38012 ft | 406 kts | 280° |
| 2026-04-28 23:03 | -13.92530 | 135.51846 | 38015 ft | 406 kts | 280° |
| 2026-04-28 23:04 | -13.91388 | 135.46148 | 38013 ft | 406 kts | 281° |
| 2026-04-28 23:04 | -13.89659 | 135.37604 | 38016 ft | 407 kts | 281° |
| 2026-04-28 23:05 | -13.88511 | 135.31904 | 38013 ft | 407 kts | 280° |
| 2026-04-28 23:05 | -13.87359 | 135.26207 | 38013 ft | 407 kts | 281° |
| 2026-04-28 23:06 | -13.86208 | 135.20505 | 38014 ft | 407 kts | 281° |
| 2026-04-28 23:06 | -13.85054 | 135.14807 | 38022 ft | 407 kts | 281° |
| 2026-04-28 23:07 | -13.83895 | 135.09105 | 38025 ft | 407 kts | 281° |
| 2026-04-28 23:07 | -13.82733 | 135.03406 | 38024 ft | 407 kts | 281° |
| 2026-04-28 23:08 | -13.81581 | 134.97744 | 38023 ft | 407 kts | 281° |
| 2026-04-28 23:08 | -13.80424 | 134.92037 | 38022 ft | 407 kts | 281° |
| 2026-04-28 23:09 | -13.79263 | 134.86331 | 38018 ft | 408 kts | 281° |
| 2026-04-28 23:09 | -13.78091 | 134.80622 | 38017 ft | 408 kts | 281° |
| 2026-04-28 23:10 | -13.76920 | 134.74910 | 38017 ft | 408 kts | 281° |
| 2026-04-28 23:10 | -13.75752 | 134.69193 | 38021 ft | 408 kts | 281° |
| 2026-04-28 23:11 | -13.74580 | 134.63478 | 38021 ft | 408 kts | 281° |
| 2026-04-28 23:11 | -13.73401 | 134.57766 | 38024 ft | 408 kts | 281° |
| 2026-04-28 23:12 | -13.72224 | 134.52049 | 38021 ft | 408 kts | 281° |
| 2026-04-28 23:12 | -13.71045 | 134.46333 | 38016 ft | 409 kts | 281° |
| 2026-04-28 23:13 | -13.69874 | 134.40618 | 38023 ft | 409 kts | 281° |
| 2026-04-28 23:13 | -13.68702 | 134.34897 | 38023 ft | 409 kts | 281° |
| 2026-04-28 23:14 | -13.67520 | 134.29183 | 38018 ft | 409 kts | 281° |
| 2026-04-28 23:14 | -13.66331 | 134.23503 | 38021 ft | 409 kts | 281° |
| 2026-04-28 23:15 | -13.65117 | 134.17790 | 38028 ft | 409 kts | 281° |
| 2026-04-28 23:15 | -13.63901 | 134.12070 | 38024 ft | 409 kts | 281° |
| 2026-04-28 23:16 | -13.62681 | 134.06352 | 38029 ft | 410 kts | 281° |
| 2026-04-28 23:16 | -13.61460 | 134.00634 | 38035 ft | 410 kts | 281° |
| 2026-04-28 23:17 | -13.60238 | 133.94909 | 38027 ft | 410 kts | 281° |
| 2026-04-28 23:17 | -13.59020 | 133.89187 | 38030 ft | 410 kts | 281° |
| 2026-04-28 23:18 | -13.57799 | 133.83461 | 38034 ft | 410 kts | 281° |
| 2026-04-28 23:18 | -13.56568 | 133.77695 | 38028 ft | 419 kts | 281° |
| 2026-04-28 23:19 | -13.55942 | 133.74778 | 38026 ft | 424 kts | 281° |
| 2026-04-28 23:19 | -13.55190 | 133.71271 | 38029 ft | 430 kts | 281° |
| 2026-04-28 23:20 | -13.53899 | 133.65225 | 38039 ft | 435 kts | 281° |
| 2026-04-28 23:20 | -13.52596 | 133.59141 | 38030 ft | 436 kts | 281° |
| 2026-04-28 23:21 | -13.51283 | 133.53049 | 38035 ft | 437 kts | 281° |
| 2026-04-28 23:21 | -13.49975 | 133.46949 | 38038 ft | 438 kts | 281° |
| 2026-04-28 23:22 | -13.48656 | 133.40842 | 38046 ft | 438 kts | 282° |
| 2026-04-28 23:22 | -13.47332 | 133.34741 | 38049 ft | 438 kts | 282° |
| 2026-04-28 23:23 | -13.46016 | 133.28640 | 38048 ft | 437 kts | 282° |
| 2026-04-28 23:23 | -13.44905 | 133.22507 | 38051 ft | 436 kts | 275° |
| 2026-04-28 23:24 | -13.44343 | 133.16303 | 38053 ft | 436 kts | 275° |
| 2026-04-28 23:24 | -13.43761 | 133.10141 | 38046 ft | 436 kts | 275° |
| 2026-04-28 23:25 | -13.43174 | 133.03936 | 38046 ft | 436 kts | 275° |
| 2026-04-28 23:25 | -13.42586 | 132.97733 | 38052 ft | 436 kts | 275° |
| 2026-04-28 23:26 | -13.42003 | 132.91544 | 38051 ft | 435 kts | 275° |
| 2026-04-28 23:26 | -13.41429 | 132.85360 | 38045 ft | 435 kts | 275° |
| 2026-04-28 23:27 | -13.40845 | 132.79187 | 38044 ft | 434 kts | 275° |
| 2026-04-28 23:27 | -13.40250 | 132.73017 | 38042 ft | 434 kts | 275° |
| 2026-04-28 23:28 | -13.39659 | 132.66850 | 38041 ft | 434 kts | 275° |
| 2026-04-28 23:28 | -13.39070 | 132.60683 | 38034 ft | 434 kts | 275° |
| 2026-04-28 23:29 | -13.38485 | 132.54519 | 38035 ft | 434 kts | 275° |
| 2026-04-28 23:29 | -13.37892 | 132.48352 | 38029 ft | 434 kts | 275° |
| 2026-04-28 23:30 | -13.37293 | 132.42191 | 38029 ft | 434 kts | 275° |
| 2026-04-28 23:30 | -13.36694 | 132.36030 | 38033 ft | 434 kts | 275° |
| 2026-04-28 23:31 | -13.36104 | 132.29870 | 38032 ft | 433 kts | 275° |
| 2026-04-28 23:31 | -13.35512 | 132.23754 | 38029 ft | 433 kts | 275° |
| 2026-04-28 23:32 | -13.34919 | 132.17599 | 38032 ft | 433 kts | 275° |
| 2026-04-28 23:32 | -13.34322 | 132.11440 | 38024 ft | 434 kts | 275° |
| 2026-04-28 23:33 | -13.33715 | 132.05276 | 38018 ft | 434 kts | 275° |
| 2026-04-28 23:33 | -13.33099 | 131.99107 | 38023 ft | 435 kts | 275° |
| 2026-04-28 23:34 | -13.32175 | 131.92983 | 38024 ft | 435 kts | 287° |
| 2026-04-28 23:34 | -13.29469 | 131.87442 | 38025 ft | 438 kts | 304° |
| 2026-04-28 23:35 | -13.27696 | 131.84894 | 37488 ft | 441 kts | 304° |
| 2026-04-28 23:35 | -13.25900 | 131.82304 | 36402 ft | 450 kts | 303° |
| 2026-04-28 23:35 | -13.24077 | 131.79667 | 35434 ft | 456 kts | 303° |
| 2026-04-28 23:35 | -13.22231 | 131.76997 | 34529 ft | 461 kts | 303° |
| 2026-04-28 23:36 | -13.20371 | 131.74305 | 33601 ft | 464 kts | 303° |
| 2026-04-28 23:36 | -13.18495 | 131.71587 | 32583 ft | 468 kts | 303° |
| 2026-04-28 23:36 | -13.16604 | 131.68851 | 31551 ft | 472 kts | 303° |
| 2026-04-28 23:36 | -13.14697 | 131.66097 | 30682 ft | 473 kts | 303° |
| 2026-04-28 23:37 | -13.12789 | 131.63341 | 29786 ft | 474 kts | 303° |
| 2026-04-28 23:37 | -13.10880 | 131.60585 | 28863 ft | 473 kts | 303° |
| 2026-04-28 23:37 | -13.08984 | 131.57849 | 28065 ft | 469 kts | 303° |
| 2026-04-28 23:37 | -13.07104 | 131.55134 | 27312 ft | 464 kts | 303° |
| 2026-04-28 23:38 | -13.05241 | 131.52445 | 26477 ft | 462 kts | 304° |
| 2026-04-28 23:38 | -13.03241 | 131.49889 | 25838 ft | 458 kts | 312° |
| 2026-04-28 23:38 | -13.00849 | 131.47741 | 25140 ft | 457 kts | 323° |
| 2026-04-28 23:38 | -12.98234 | 131.45918 | 24495 ft | 453 kts | 324° |
| 2026-04-28 23:39 | -12.95671 | 131.44144 | 23880 ft | 449 kts | 324° |
| 2026-04-28 23:39 | -12.93098 | 131.42357 | 23215 ft | 445 kts | 324° |
| 2026-04-28 23:39 | -12.90554 | 131.40587 | 22623 ft | 438 kts | 324° |
| 2026-04-28 23:39 | -12.88053 | 131.38844 | 22093 ft | 432 kts | 324° |
| 2026-04-28 23:40 | -12.85584 | 131.37124 | 21559 ft | 426 kts | 325° |
| 2026-04-28 23:40 | -12.83147 | 131.35426 | 21046 ft | 421 kts | 325° |
| 2026-04-28 23:40 | -12.80741 | 131.33754 | 20528 ft | 416 kts | 325° |
| 2026-04-28 23:40 | -12.78354 | 131.32097 | 20010 ft | 412 kts | 325° |
| 2026-04-28 23:41 | -12.75991 | 131.30456 | 19489 ft | 409 kts | 325° |
| 2026-04-28 23:41 | -12.73639 | 131.28821 | 18952 ft | 408 kts | 325° |
| 2026-04-28 23:41 | -12.71298 | 131.27193 | 18417 ft | 406 kts | 325° |
| 2026-04-28 23:41 | -12.68957 | 131.25567 | 17818 ft | 406 kts | 324° |
| 2026-04-28 23:42 | -12.66632 | 131.23952 | 17271 ft | 403 kts | 324° |
| 2026-04-28 23:42 | -12.64321 | 131.22342 | 16715 ft | 401 kts | 323° |
| 2026-04-28 23:42 | -12.62237 | 131.20478 | 16163 ft | 396 kts | 310° |
| 2026-04-28 23:42 | -12.60608 | 131.18232 | 15620 ft | 391 kts | 298° |
| 2026-04-28 23:43 | -12.59482 | 131.15721 | 15070 ft | 387 kts | 287° |
| 2026-04-28 23:43 | -12.58916 | 131.14000 | 14707 ft | 385 kts | 286° |
| 2026-04-28 23:43 | -12.58062 | 131.11409 | 14176 ft | 383 kts | 286° |
| 2026-04-28 23:43 | -12.57208 | 131.08835 | 13624 ft | 381 kts | 287° |
| 2026-04-28 23:44 | -12.56355 | 131.06278 | 13055 ft | 378 kts | 287° |
| 2026-04-28 23:44 | -12.55236 | 131.02929 | 12331 ft | 373 kts | 287° |
| 2026-04-28 23:44 | -12.54402 | 131.00427 | 11800 ft | 370 kts | 287° |
| 2026-04-28 23:44 | -12.53843 | 130.98748 | 11432 ft | 368 kts | 287° |
| 2026-04-28 23:45 | -12.52760 | 130.95480 | 10716 ft | 365 kts | 288° |
| 2026-04-28 23:45 | -12.52222 | 130.93856 | 10451 ft | 360 kts | 288° |
| 2026-04-28 23:45 | -12.51423 | 130.91455 | 10368 ft | 344 kts | 288° |
| 2026-04-28 23:45 | -12.50675 | 130.89208 | 10238 ft | 332 kts | 288° |
| 2026-04-28 23:46 | -12.49933 | 130.86983 | 10094 ft | 321 kts | 289° |
| 2026-04-28 23:46 | -12.49231 | 130.84888 | 9953 ft | 311 kts | 289° |
| 2026-04-28 23:46 | -12.48523 | 130.82783 | 9320 ft | 317 kts | 289° |
| 2026-04-28 23:46 | -12.47799 | 130.80632 | 8740 ft | 322 kts | 289° |
| 2026-04-28 23:47 | -12.47065 | 130.78460 | 8172 ft | 324 kts | 290° |
| 2026-04-28 23:47 | -12.46325 | 130.76268 | 7587 ft | 327 kts | 290° |
| 2026-04-28 23:47 | -12.45583 | 130.74056 | 7007 ft | 330 kts | 290° |
| 2026-04-28 23:47 | -12.44834 | 130.71830 | 6447 ft | 331 kts | 290° |
| 2026-04-28 23:48 | -12.44086 | 130.69611 | 6080 ft | 325 kts | 290° |
| 2026-04-28 23:48 | -12.43279 | 130.67520 | 5996 ft | 306 kts | 303° |
| 2026-04-28 23:48 | -12.41858 | 130.66055 | 6012 ft | 281 kts | 332° |
| 2026-04-28 23:48 | -12.40076 | 130.65545 | 6012 ft | 256 kts | 3° |
| 2026-04-28 23:49 | -12.38428 | 130.65918 | 6016 ft | 234 kts | 28° |
| 2026-04-28 23:49 | -12.37233 | 130.66955 | 5796 ft | 224 kts | 60° |
| 2026-04-28 23:49 | -12.36852 | 130.68445 | 5529 ft | 218 kts | 95° |
| 2026-04-28 23:49 | -12.37304 | 130.69899 | 5277 ft | 214 kts | 110° |
| 2026-04-28 23:50 | -12.37673 | 130.71346 | 5029 ft | 209 kts | 93° |
| 2026-04-28 23:50 | -12.37600 | 130.72820 | 4799 ft | 206 kts | 85° |
| 2026-04-28 23:50 | -12.37578 | 130.73066 | 4760 ft | 206 kts | 86° |
| 2026-04-28 23:50 | -12.37538 | 130.73730 | 4656 ft | 204 kts | 89° |
| 2026-04-28 23:51 | -12.37626 | 130.75222 | 3962 ft | 221 kts | 98° |
| 2026-04-28 23:51 | -12.37877 | 130.76855 | 2952 ft | 240 kts | 99° |
| 2026-04-28 23:51 | -12.38145 | 130.78532 | 2090 ft | 236 kts | 98° |
| 2026-04-28 23:51 | -12.38433 | 130.80130 | 1658 ft | 216 kts | 102° |
| 2026-04-28 23:52 | -12.38918 | 130.81469 | 1462 ft | 186 kts | 114° |
| 2026-04-28 23:52 | -12.39455 | 130.82592 | 1151 ft | 166 kts | 113° |
| 2026-04-28 23:52 | -12.39727 | 130.83195 | 950 ft | 158 kts | 114° |
| 2026-04-28 23:52 | -12.39750 | 130.83244 | 924 ft | 157 kts | 113° |
| 2026-04-28 23:53 | -12.40154 | 130.84263 | 642 ft | 154 kts | 108° |
| 2026-04-28 23:53 | -12.40500 | 130.85278 | 574 ft | 157 kts | 109° |
| 2026-04-28 23:53 | -12.40894 | 130.86299 | 292 ft | 152 kts | 101° |
| 2026-04-28 23:53 | -12.41234 | 130.87320 | 113 ft | 149 kts | 96° |
| 2026-04-28 23:54 | -12.41527 | 130.88343 | 94 ft | 130 kts | 109° |
| 2026-04-28 23:54 | -12.41743 | 130.88903 | 98 ft | 40 kts | 113° |
| 2026-04-28 23:54 | -12.41808 | 130.89138 | 100 ft | 33 kts | 105° |
| 2026-04-28 23:54 | -12.41893 | 130.89336 | 98 ft | 28 kts | 117° |
| 2026-04-28 23:55 | -12.42016 | 130.89405 | 95 ft | 22 kts | 194° |
| 2026-04-28 23:55 | -12.42131 | 130.89313 | 94 ft | 21 kts | 275° |
| 2026-04-28 23:55 | -12.42122 | 130.89199 | 94 ft | 14 kts | 284° |
| 2026-04-28 23:55 | -12.42094 | 130.89113 | 96 ft | 12 kts | 289° |
| 2026-04-28 23:56 | -12.42069 | 130.89041 | 97 ft | 10 kts | 289° |
| 2026-04-28 23:56 | -12.42047 | 130.88975 | 98 ft | 10 kts | 289° |
| 2026-04-28 23:56 | -12.42026 | 130.88913 | 97 ft | 9 kts | 289° |
| 2026-04-28 23:56 | -12.42006 | 130.88857 | 97 ft | 9 kts | 289° |
| 2026-04-28 23:57 | -12.41977 | 130.88770 | 99 ft | 17 kts | 289° |
| 2026-04-28 23:57 | -12.41922 | 130.88620 | 95 ft | 28 kts | 291° |
| 2026-04-28 23:57 | -12.41858 | 130.88420 | 97 ft | 31 kts | 287° |
| 2026-04-28 23:57 | -12.41789 | 130.88198 | 97 ft | 34 kts | 289° |
| 2026-04-28 23:58 | -12.41716 | 130.87993 | 98 ft | 18 kts | 292° |
| 2026-04-28 23:58 | -12.41569 | 130.87951 | 97 ft | 29 kts | 33° |
| 2026-04-28 23:58 | -12.41337 | 130.88018 | 98 ft | 39 kts | 17° |
| 2026-04-28 23:58 | -12.41127 | 130.88090 | 98 ft | 30 kts | 20° |
| 2026-04-28 23:59 | -12.41047 | 130.88045 | 97 ft | 13 kts | 298° |
| 2026-04-28 23:59 | -12.41024 | 130.87986 | 96 ft | 4 kts | 288° |
| 2026-04-28 23:59 | -12.41010 | 130.87938 | 96 ft | 10 kts | 285° |
| 2026-04-28 23:59 | -12.40986 | 130.87850 | 96 ft | 14 kts | 286° |
| 2026-04-29 00:00 | -12.40962 | 130.87754 | 95 ft | 14 kts | 283° |
| 2026-04-29 00:00 | -12.40945 | 130.87658 | 93 ft | 11 kts | 278° |
| 2026-04-29 00:00 | -12.40943 | 130.87646 | 93 ft | 1 kts | 285° |
| 2026-04-29 00:00 | -12.40892 | 130.87638 | 92 ft | 16 kts | 5° |
| 2026-04-29 00:01 | -12.40869 | 130.87642 | 92 ft | 0 kts | 13° |
| 2026-04-29 00:03 | -12.40868 | 130.87642 | 91 ft | 0 kts | 13° |